Time;durP1;ratioP1;P1;durP2;ratioP2;P2;SDS_P1;SDS_P2;PMS_P1;PMS_P2;Temp;Humidity;BMP_temperature;BMP_pressure;BME280_temperature;BME280_humidity;BME280_pressure;Samples;Min_cycle;Max_cycle;Signal;HPM_P1;HPM_P2
2021/10/13 00:00:23;;;;;;;10.70;4.22;;;10.60;99.90;;;;;;5053098;28;20029;-78
2021/10/13 00:02:49;;;;;;;11.50;4.00;;;10.60;99.90;;;;;;5053655;28;20021;-77
2021/10/13 00:05:14;;;;;;;13.10;4.03;;;10.60;99.90;;;;;;5056649;28;20028;-77
2021/10/13 00:07:40;;;;;;;12.40;4.30;;;10.80;99.90;;;;;;5055292;28;20054;-77
2021/10/13 00:10:06;;;;;;;9.10;3.67;;;10.50;99.90;;;;;;5056413;28;20100;-77
2021/10/13 00:12:34;;;;;;;9.75;3.92;;;10.40;99.90;;;;;;5056361;28;20029;-77
2021/10/13 00:15:02;;;;;;;11.30;4.25;;;10.30;99.90;;;;;;5056506;28;20044;-78
2021/10/13 00:17:28;;;;;;;10.73;4.28;;;10.60;99.90;;;;;;5056415;28;20051;-77
2021/10/13 00:19:54;;;;;;;9.48;3.70;;;10.60;99.90;;;;;;5056359;28;20061;-77
2021/10/13 00:22:19;;;;;;;10.95;4.60;;;10.80;99.90;;;;;;5055018;28;20044;-78
2021/10/13 00:24:45;;;;;;;10.80;4.28;;;10.90;99.90;;;;;;5056574;28;20021;-77
2021/10/13 00:27:11;;;;;;;12.18;4.53;;;10.90;99.90;;;;;;5054954;28;20029;-77
2021/10/13 00:29:38;;;;;;;10.80;4.70;;;10.70;99.90;;;;;;5056074;28;20118;-77
2021/10/13 00:32:04;;;;;;;12.75;5.88;;;10.70;99.90;;;;;;5055886;28;20037;-77
2021/10/13 00:34:32;;;;;;;12.63;5.80;;;10.80;99.90;;;;;;5056091;28;20021;-77
2021/10/13 00:36:58;;;;;;;16.38;5.65;;;10.90;99.90;;;;;;5056021;28;20024;-77
2021/10/13 00:39:24;;;;;;;12.82;5.97;;;11.00;99.90;;;;;;5055985;28;20544;-77
2021/10/13 00:41:50;;;;;;;18.73;6.45;;;10.60;99.90;;;;;;5055990;28;20116;-77
2021/10/13 00:44:16;;;;;;;13.73;5.65;;;10.50;99.90;;;;;;5055904;28;20091;-77
2021/10/13 00:46:41;;;;;;;16.00;6.40;;;10.60;99.90;;;;;;5055910;28;20106;-78
2021/10/13 00:49:07;;;;;;;14.77;6.95;;;10.50;99.90;;;;;;5055834;28;20380;-77
2021/10/13 00:51:34;;;;;;;17.73;7.57;;;10.60;99.90;;;;;;5055689;28;20037;-78
2021/10/13 00:54:00;;;;;;;;;;;10.40;99.90;;;;;;5056142;28;20061;-77
2021/10/13 00:56:26;;;;;;;16.40;6.47;;;10.00;99.90;;;;;;5055815;28;20393;-77
2021/10/13 00:58:52;;;;;;;15.93;6.00;;;9.80;99.90;;;;;;5054377;28;20028;-77
2021/10/13 01:01:44;;;;;;;16.85;5.50;;;9.90;99.90;;;;;;5054292;28;20121;-77
2021/10/13 01:04:29;;;;;;;11.73;4.75;;;10.30;99.90;;;;;;5055725;28;20538;-77
2021/10/13 01:07:20;;;;;;;11.48;4.88;;;10.40;99.90;;;;;;5053954;28;20017;-77
2021/10/13 01:09:55;;;;;;;15.25;5.78;;;10.20;99.90;;;;;;5055621;28;20036;-78
2021/10/13 01:12:35;;;;;;;12.73;4.83;;;10.10;99.90;;;;;;5055599;28;20017;-76
2021/10/13 01:15:32;;;;;;;13.55;4.65;;;9.80;99.90;;;;;;5055353;28;20079;-77
2021/10/13 01:18:41;;;;;;;10.85;4.60;;;9.80;99.90;;;;;;5046542;28;20044;-77
2021/10/13 01:21:43;;;;;;;9.93;4.18;;;9.80;99.90;;;;;;5033145;28;20025;-77
2021/10/13 01:24:24;;;;;;;12.50;5.07;;;9.80;99.90;;;;;;5055310;28;20083;-77
2021/10/13 01:27:15;;;;;;;11.35;4.75;;;9.90;99.90;;;;;;5055203;28;20100;-77
2021/10/13 01:29:43;;;;;;;10.95;4.18;;;9.90;99.90;;;;;;5055097;28;20040;-77
2021/10/13 01:32:20;;;;;;;11.23;4.22;;;10.00;99.90;;;;;;5054787;28;20041;-77
2021/10/13 01:34:48;;;;;;;8.70;3.60;;;10.00;99.90;;;;;;5055512;28;20028;-78
2021/10/13 01:37:22;;;;;;;8.68;3.47;;;9.90;99.90;;;;;;5054845;28;20021;-77
2021/10/13 01:39:53;;;;;;;9.18;4.07;;;9.80;99.90;;;;;;5053348;28;20033;-77
2021/10/13 01:42:20;;;;;;;8.93;4.13;;;9.90;99.90;;;;;;5054822;28;20031;-78
2021/10/13 01:44:54;;;;;;;9.25;4.22;;;9.80;99.90;;;;;;5054724;28;20087;-77
2021/10/13 01:47:20;;;;;;;10.63;5.30;;;9.70;99.90;;;;;;5053137;28;20386;-77
2021/10/13 01:49:48;;;;;;;14.52;5.50;;;9.90;99.90;;;;;;5053283;28;20556;-77
2021/10/13 01:52:17;;;;;;;16.00;7.38;;;9.70;99.90;;;;;;5054602;28;20025;-77
2021/10/13 01:54:44;;;;;;;10.43;5.28;;;9.60;99.90;;;;;;5054516;28;20060;-77
2021/10/13 01:57:11;;;;;;;12.15;4.80;;;9.60;99.90;;;;;;5054566;28;20020;-77
2021/10/13 01:59:41;;;;;;;13.23;5.20;;;9.80;99.90;;;;;;5053151;28;20033;-76
2021/10/13 02:02:09;;;;;;;14.32;5.00;;;9.90;99.90;;;;;;5054871;28;20025;-77
2021/10/13 02:04:41;;;;;;;7.50;3.60;;;10.10;99.90;;;;;;5053070;28;20029;-77
2021/10/13 02:07:10;;;;;;;8.15;3.47;;;10.10;99.90;;;;;;5054282;28;20040;-77
2021/10/13 02:09:37;;;;;;;8.80;3.70;;;10.30;99.90;;;;;;5054172;28;20431;-78
2021/10/13 02:12:04;;;;;;;9.48;3.60;;;10.50;99.90;;;;;;5054135;28;20012;-77
2021/10/13 02:14:35;;;;;;;9.38;3.47;;;10.60;99.90;;;;;;5054166;28;20020;-77
2021/10/13 02:17:02;;;;;;;12.68;4.10;;;10.60;99.90;;;;;;5054328;28;20096;-77
2021/10/13 02:19:29;;;;;;;10.43;3.65;;;10.60;99.90;;;;;;5054068;28;20025;-77
2021/10/13 02:21:56;;;;;;;11.02;3.60;;;10.10;99.90;;;;;;5053993;28;20017;-77
2021/10/13 02:24:41;;;;;;;8.48;3.75;;;10.00;99.90;;;;;;5053972;28;20074;-77
2021/10/13 02:27:19;;;;;;;9.38;3.92;;;10.10;99.90;;;;;;5053706;28;20032;-78
2021/10/13 02:29:45;;;;;;;10.38;4.68;;;10.00;99.90;;;;;;5053907;28;20029;-77
2021/10/13 02:32:12;;;;;;;12.60;4.70;;;10.00;99.90;;;;;;5053679;28;20044;-77
2021/10/13 02:34:41;;;;;;;9.85;4.28;;;9.80;99.90;;;;;;5054197;28;20021;-77
2021/10/13 02:37:08;;;;;;;10.80;4.30;;;10.00;99.90;;;;;;5052493;28;20512;-77
2021/10/13 02:39:34;;;;;;;9.88;3.75;;;10.20;99.90;;;;;;5053630;28;20039;-77
2021/10/13 02:42:01;;;;;;;;;;;10.30;99.90;;;;;;5054062;28;20447;-77
2021/10/13 02:44:27;;;;;;;8.57;3.50;;;10.40;99.90;;;;;;5053652;28;19970;-77
2021/10/13 02:46:59;;;;;;;10.27;3.55;;;10.20;99.90;;;;;;5053617;28;20473;-77
2021/10/13 02:49:36;;;;;;;8.80;3.58;;;10.10;99.90;;;;;;5053475;28;20063;-77
2021/10/13 02:52:05;;;;;;;9.13;3.60;;;10.00;99.90;;;;;;5053677;28;20029;-77
2021/10/13 02:54:47;;;;;;;9.38;3.97;;;10.00;99.90;;;;;;5053541;28;20017;-77
2021/10/13 02:57:14;;;;;;;14.68;4.80;;;10.00;99.90;;;;;;5053418;28;20021;-77
2021/10/13 02:59:42;;;;;;;22.10;8.23;;;9.80;99.90;;;;;;5053446;28;20021;-77
2021/10/13 03:02:16;;;;;;;14.10;6.65;;;9.50;99.90;;;;;;5053392;28;20025;-76
2021/10/13 03:04:48;;;;;;;16.85;7.05;;;9.40;99.90;;;;;;5051870;28;20060;-77
2021/10/13 03:07:31;;;;;;;20.52;7.05;;;9.30;99.90;;;;;;5051804;28;20037;-78
2021/10/13 03:10:00;;;;;;;18.35;6.63;;;9.40;99.90;;;;;;5051700;28;20420;-77
2021/10/13 03:12:49;;;;;;;22.08;7.13;;;9.30;99.90;;;;;;5053254;28;20067;-77
2021/10/13 03:15:15;;;;;;;14.98;5.90;;;9.00;99.90;;;;;;5052008;28;20024;-78
2021/10/13 03:17:46;;;;;;;11.95;5.28;;;9.00;99.90;;;;;;5053404;28;20523;-77
2021/10/13 03:20:14;;;;;;;9.68;5.00;;;9.20;99.90;;;;;;5053252;28;20062;-78
2021/10/13 03:22:40;;;;;;;13.38;6.03;;;9.20;99.90;;;;;;5053174;28;20507;-77
2021/10/13 03:25:06;;;;;;;12.32;6.32;;;9.10;99.90;;;;;;5053179;28;20096;-77
2021/10/13 03:27:32;;;;;;;13.15;5.82;;;8.90;99.90;;;;;;5053162;28;20083;-77
2021/10/13 03:29:58;;;;;;;13.43;5.18;;;8.70;99.90;;;;;;5053244;28;20429;-77
2021/10/13 03:32:24;;;;;;;13.85;5.38;;;8.80;99.90;;;;;;5052619;28;20095;-78
2021/10/13 03:34:50;;;;;;;11.77;5.25;;;8.80;99.90;;;;;;5053046;28;20052;-77
2021/10/13 03:37:17;;;;;;;10.27;4.63;;;8.80;99.90;;;;;;5053076;28;20024;-77
2021/10/13 03:39:47;;;;;;;10.95;4.80;;;8.90;99.90;;;;;;5055760;28;20053;-77
2021/10/13 03:42:13;;;;;;;12.20;4.18;;;9.20;99.90;;;;;;5057096;28;20550;-77
2021/10/13 03:44:39;;;;;;;10.20;4.85;;;9.30;99.90;;;;;;5057080;28;20025;-77
2021/10/13 03:47:06;;;;;;;10.80;4.35;;;9.20;99.90;;;;;;5055726;28;20511;-77
2021/10/13 03:49:33;;;;;;;10.68;4.50;;;9.40;99.90;;;;;;5056962;28;20025;-78
2021/10/13 03:51:59;;;;;;;9.93;4.20;;;9.70;99.90;;;;;;5056986;28;20028;-78
2021/10/13 03:54:24;;;;;;;10.20;4.40;;;9.90;99.90;;;;;;5056805;28;20017;-77
2021/10/13 03:56:51;;;;;;;7.93;3.88;;;9.60;99.90;;;;;;5056768;28;20029;-77
2021/10/13 03:59:17;;;;;;;9.35;4.18;;;9.70;99.90;;;;;;5057027;28;20041;-77
2021/10/13 04:01:43;;;;;;;;;;;9.80;99.90;;;;;;5055838;28;20035;-77
2021/10/13 04:04:09;;;;;;;9.00;4.38;;;9.60;99.90;;;;;;5056681;28;20432;-77
2021/10/13 04:06:34;;;;;;;9.05;4.10;;;9.40;99.90;;;;;;5056607;28;20027;-77
2021/10/13 04:09:00;;;;;;;12.15;4.10;;;9.40;99.90;;;;;;5056820;28;20032;-77
2021/10/13 04:11:26;;;;;;;12.60;3.72;;;9.40;99.90;;;;;;5056407;28;20444;-77
2021/10/13 04:13:52;;;;;;;10.57;4.03;;;9.50;99.90;;;;;;5056487;28;20035;-77
2021/10/13 04:16:17;;;;;;;10.73;3.83;;;9.50;99.90;;;;;;5056462;28;20028;-77
2021/10/13 04:18:43;;;;;;;8.77;4.28;;;9.40;99.90;;;;;;5056383;28;20099;-77
2021/10/13 04:21:09;;;;;;;12.35;4.70;;;9.20;99.90;;;;;;5056754;28;20025;-77
2021/10/13 04:23:35;;;;;;;8.82;4.68;;;9.30;99.90;;;;;;5056590;28;20116;-77
2021/10/13 04:26:00;;;;;;;9.43;4.40;;;9.00;99.90;;;;;;5054974;28;20062;-77
2021/10/13 04:28:26;;;;;;;9.10;3.65;;;8.90;99.90;;;;;;5056234;28;20040;-78
2021/10/13 04:30:52;;;;;;;13.93;3.90;;;9.00;99.90;;;;;;5054289;28;20052;-78
2021/10/13 04:33:18;;;;;;;9.18;3.70;;;9.30;99.90;;;;;;5055419;28;20056;-77
2021/10/13 04:35:43;;;;;;;9.85;4.15;;;9.50;99.90;;;;;;5055178;28;20101;-77
2021/10/13 04:38:09;;;;;;;13.15;4.10;;;9.50;99.90;;;;;;5054654;28;20503;-77
2021/10/13 04:40:35;;;;;;;11.30;4.40;;;9.30;99.90;;;;;;5054874;28;20060;-77
2021/10/13 04:43:01;;;;;;;10.60;3.90;;;9.20;99.90;;;;;;5054810;28;20408;-77
2021/10/13 04:45:28;;;;;;;9.60;3.83;;;9.20;99.90;;;;;;5053480;28;20021;-77
2021/10/13 04:47:53;;;;;;;10.80;3.70;;;9.40;99.90;;;;;;5053398;28;20063;-77
2021/10/13 04:50:19;;;;;;;7.20;3.53;;;9.50;99.90;;;;;;5054182;28;20420;-78
2021/10/13 04:52:45;;;;;;;10.40;4.03;;;9.40;99.90;;;;;;5053385;28;20116;-77
2021/10/13 04:55:11;;;;;;;9.55;3.70;;;9.50;99.90;;;;;;5054553;28;20017;-77
2021/10/13 04:57:37;;;;;;;;;;;9.50;99.90;;;;;;5054932;28;20091;-77
2021/10/13 05:00:04;;;;;;;10.18;4.05;;;9.50;99.90;;;;;;5054514;28;19904;-77
2021/10/13 05:02:30;;;;;;;10.18;3.83;;;9.50;99.90;;;;;;5054774;28;20025;-77
2021/10/13 05:04:56;;;;;;;10.93;4.30;;;9.30;99.90;;;;;;5054400;28;20025;-77
2021/10/13 05:07:22;;;;;;;13.68;4.20;;;8.90;99.90;;;;;;5054500;28;20029;-76
2021/10/13 05:09:48;;;;;;;14.70;4.32;;;9.00;99.90;;;;;;5053012;28;20090;-77
2021/10/13 05:12:13;;;;;;;13.30;4.18;;;9.20;99.90;;;;;;5054273;28;20048;-77
2021/10/13 05:14:39;;;;;;;9.95;3.80;;;9.30;99.90;;;;;;5054289;28;20096;-76
2021/10/13 05:17:05;;;;;;;10.95;3.95;;;9.50;99.90;;;;;;5052943;28;20401;-77
2021/10/13 05:19:31;;;;;;;13.80;4.68;;;9.40;99.90;;;;;;5054175;28;20474;-77
2021/10/13 05:21:56;;;;;;;13.00;3.70;;;9.40;99.90;;;;;;5054306;28;20388;-77
2021/10/13 05:24:22;;;;;;;13.43;4.18;;;9.30;99.90;;;;;;5054096;28;20020;-77
2021/10/13 05:26:48;;;;;;;9.82;4.47;;;9.10;99.90;;;;;;5052812;28;20025;-77
2021/10/13 05:29:14;;;;;;;25.60;4.60;;;8.80;99.90;;;;;;5054211;28;20025;-77
2021/10/13 05:31:39;;;;;;;15.32;4.80;;;8.90;99.90;;;;;;5008073;28;1328777;-77
2021/10/13 05:34:05;;;;;;;13.77;4.25;;;9.00;99.90;;;;;;5054972;28;20036;-77
2021/10/13 05:36:31;;;;;;;14.75;4.38;;;9.00;99.90;;;;;;5054936;28;20565;-77
2021/10/13 05:38:57;;;;;;;18.00;4.80;;;9.10;99.90;;;;;;5054795;28;20051;-77
2021/10/13 05:41:23;;;;;;;14.63;5.03;;;9.30;99.90;;;;;;5053559;28;20504;-77
2021/10/13 05:43:49;;;;;;;18.23;4.80;;;9.40;99.90;;;;;;5054758;28;20028;-77
2021/10/13 05:46:14;;;;;;;18.80;4.75;;;9.20;99.90;;;;;;5054728;28;20021;-77
2021/10/13 05:48:40;;;;;;;12.57;4.57;;;9.00;99.90;;;;;;5054709;28;20028;-77
2021/10/13 05:51:06;;;;;;;12.43;4.40;;;9.10;99.90;;;;;;5054594;28;20055;-77
2021/10/13 05:53:32;;;;;;;11.05;3.65;;;9.30;99.90;;;;;;5054951;28;20101;-77
2021/10/13 05:55:57;;;;;;;19.75;4.32;;;9.30;99.90;;;;;;5054607;28;20013;-77
2021/10/13 05:58:25;;;;;;;13.10;3.80;;;9.20;99.90;;;;;;5054534;28;20074;-78
2021/10/13 06:00:54;;;;;;;19.80;4.20;;;8.80;99.90;;;;;;5053521;28;20086;-77
2021/10/13 06:03:21;;;;;;;16.60;4.00;;;8.80;99.90;;;;;;5053189;28;20100;-77
2021/10/13 06:05:50;;;;;;;9.70;3.38;;;8.90;99.90;;;;;;5053941;28;20112;-78
2021/10/13 06:08:17;;;;;;;9.32;3.13;;;8.90;99.90;;;;;;5053066;28;20021;-77
2021/10/13 06:10:43;;;;;;;14.15;3.78;;;9.10;99.90;;;;;;5052772;28;20041;-78
2021/10/13 06:13:11;;;;;;;8.93;3.10;;;8.80;99.90;;;;;;5054599;28;20025;-77
2021/10/13 06:15:38;;;;;;;10.98;3.30;;;8.80;99.90;;;;;;5053756;28;20040;-77
2021/10/13 06:18:08;;;;;;;14.52;3.28;;;8.80;99.90;;;;;;5052905;28;20042;-77
2021/10/13 06:20:35;;;;;;;10.02;3.75;;;9.10;99.90;;;;;;5054256;28;20035;-77
2021/10/13 06:23:05;;;;;;;17.25;4.18;;;9.20;99.90;;;;;;5052813;28;20540;-77
2021/10/13 06:25:31;;;;;;;14.52;3.85;;;9.20;99.90;;;;;;5052784;28;20028;-77
2021/10/13 06:27:57;;;;;;;17.42;4.78;;;9.20;99.90;;;;;;5053844;28;20504;-77
2021/10/13 06:30:23;;;;;;;14.98;5.10;;;8.90;99.90;;;;;;5053489;28;20041;-77
2021/10/13 06:32:49;;;;;;;15.05;4.72;;;8.80;99.90;;;;;;5054213;28;20071;-77
2021/10/13 06:35:14;;;;;;;22.15;5.93;;;8.80;99.90;;;;;;5053945;28;20032;-78
2021/10/13 06:37:40;;;;;;;90.75;11.00;;;8.70;99.90;;;;;;5052413;28;20117;-77
2021/10/13 06:40:07;;;;;;;28.88;5.90;;;8.90;99.90;;;;;;5053730;28;20033;-78
2021/10/13 06:42:32;;;;;;;31.77;5.95;;;9.10;99.90;;;;;;5053650;28;20025;-77
2021/10/13 06:44:58;;;;;;;16.77;4.72;;;9.30;99.90;;;;;;5054062;28;20025;-77
2021/10/13 06:47:25;;;;;;;15.88;4.65;;;9.50;99.90;;;;;;5053549;28;20033;-77
2021/10/13 06:49:50;;;;;;;22.73;5.13;;;9.40;99.90;;;;;;5053469;28;20021;-77
2021/10/13 06:52:16;;;;;;;34.40;6.05;;;9.40;99.90;;;;;;5053523;28;20082;-77
2021/10/13 06:54:42;;;;;;;38.28;6.10;;;9.40;99.90;;;;;;5053940;28;20033;-77
2021/10/13 06:57:07;;;;;;;17.92;4.95;;;9.50;99.90;;;;;;5053623;28;20021;-77
2021/10/13 06:59:33;;;;;;;29.67;5.55;;;9.80;99.90;;;;;;5053373;28;20032;-77
2021/10/13 07:01:59;;;;;;;40.40;6.72;;;10.10;99.90;;;;;;5053265;28;20409;-77
2021/10/13 07:04:25;;;;;;;29.25;5.18;;;10.20;99.90;;;;;;5053304;28;20091;-78
2021/10/13 07:06:50;;;;;;;16.77;4.35;;;10.30;99.90;;;;;;5053277;28;20041;-78
2021/10/13 07:09:16;;;;;;;18.05;4.43;;;10.60;99.90;;;;;;5053531;28;20029;-78
2021/10/13 07:11:42;;;;;;;19.20;4.13;;;11.10;99.90;;;;;;5053303;28;20032;-78
2021/10/13 07:14:09;;;;;;;;;;;11.70;99.90;;;;;;5053634;28;20029;-78
2021/10/13 07:16:35;;;;;;;13.95;4.05;;;12.00;99.90;;;;;;5053002;28;20288;-78
2021/10/13 07:19:00;;;;;;;;;;;12.50;99.90;;;;;;5052183;28;20104;-78
2021/10/13 07:21:26;;;;;;;20.73;4.50;;;12.90;99.90;;;;;;5051897;28;19919;-77
2021/10/13 07:23:52;;;;;;;21.20;3.78;;;13.50;99.90;;;;;;5053154;28;20036;-78
2021/10/13 07:26:17;;;;;;;;;;;13.80;99.90;;;;;;5053594;28;20017;-78
2021/10/13 07:28:43;;;;;;;16.38;3.95;;;13.10;99.90;;;;;;5053511;28;19904;-78
2021/10/13 07:31:10;;;;;;;20.42;3.65;;;13.30;99.90;;;;;;5051509;28;20056;-79
2021/10/13 07:33:36;;;;;;;24.63;4.25;;;14.40;99.90;;;;;;5053220;28;20025;-78
2021/10/13 07:36:02;;;;;;;27.45;4.28;;;14.10;99.20;;;;;;5052995;28;20017;-78
2021/10/13 07:38:29;;;;;;;31.27;4.82;;;14.00;99.90;;;;;;5053186;28;20079;-78
2021/10/13 07:40:55;;;;;;;34.70;5.22;;;13.60;99.90;;;;;;5051640;28;20075;-78
2021/10/13 07:43:21;;;;;;;18.27;3.90;;;13.30;99.90;;;;;;5051629;28;20060;-79
2021/10/13 07:45:46;;;;;;;22.75;4.22;;;14.50;99.90;;;;;;5052896;28;20025;-79
2021/10/13 07:48:13;;;;;;;18.38;3.97;;;16.20;99.20;;;;;;5052727;28;20029;-78
2021/10/13 07:50:39;;;;;;;29.83;4.78;;;16.20;97.90;;;;;;5051554;28;20055;-78
2021/10/13 07:53:05;;;;;;;23.50;4.88;;;17.10;96.70;;;;;;5052896;28;20021;-78
2021/10/13 07:55:32;;;;;;;21.80;4.95;;;16.50;96.10;;;;;;5052857;28;20021;-78
2021/10/13 07:57:58;;;;;;;33.40;4.93;;;15.80;97.90;;;;;;5052930;28;20017;-79
2021/10/13 08:00:23;;;;;;;17.35;3.92;;;16.00;98.70;;;;;;5051494;28;20036;-79
2021/10/13 08:02:49;;;;;;;15.90;4.38;;;17.40;97.20;;;;;;5052820;28;20021;-79
2021/10/13 08:05:17;;;;;;;19.75;7.20;;;18.80;94.00;;;;;;5052808;28;20036;-79
2021/10/13 08:07:43;;;;;;;101.25;52.95;;;19.30;92.20;;;;;;5052681;28;20025;-79
2021/10/13 08:10:10;;;;;;;18.35;4.50;;;19.60;91.00;;;;;;5052664;28;20036;-79
2021/10/13 08:12:36;;;;;;;22.08;4.28;;;19.60;90.10;;;;;;5052661;28;20028;-79
2021/10/13 08:15:02;;;;;;;20.23;4.07;;;19.70;90.70;;;;;;5053089;28;20025;-78
2021/10/13 08:17:28;;;;;;;21.88;4.40;;;20.40;89.00;;;;;;5052637;28;20024;-79
2021/10/13 08:19:54;;;;;;;19.95;4.28;;;20.80;86.70;;;;;;5052710;28;20028;-79
2021/10/13 08:22:21;;;;;;;16.65;4.18;;;21.00;84.80;;;;;;5052616;28;20025;-79
2021/10/13 08:24:47;;;;;;;14.48;4.10;;;20.20;87.60;;;;;;5053641;28;20025;-79
2021/10/13 08:27:13;;;;;;;18.90;6.00;;;21.00;85.40;;;;;;5056232;28;20024;-78
2021/10/13 08:29:39;;;;;;;30.67;11.32;;;22.00;82.80;;;;;;5056095;28;20028;-79
2021/10/13 08:32:05;;;;;;;26.48;8.23;;;22.20;80.30;;;;;;5055730;28;20052;-79
2021/10/13 08:34:31;;;;;;;18.00;5.15;;;22.60;79.60;;;;;;5056131;28;20057;-79
2021/10/13 08:36:57;;;;;;;34.63;17.55;;;22.90;78.10;;;;;;5056049;28;20462;-79
2021/10/13 08:39:23;;;;;;;36.00;14.50;;;22.60;78.20;;;;;;5056045;28;20039;-79
2021/10/13 08:41:49;;;;;;;25.85;10.25;;;22.90;78.30;;;;;;5054690;28;20025;-79
2021/10/13 08:44:15;;;;;;;37.55;16.80;;;23.40;76.50;;;;;;5055967;28;20028;-79
2021/10/13 08:46:42;;;;;;;19.92;9.18;;;24.80;74.00;;;;;;5055929;28;20497;-79
2021/10/13 08:49:08;;;;;;;23.48;8.77;;;26.00;70.00;;;;;;5055844;28;20500;-79
2021/10/13 08:51:35;;;;;;;22.77;9.65;;;26.70;67.40;;;;;;5055721;28;20025;-79
2021/10/13 08:54:01;;;;;;;22.13;8.77;;;26.30;67.00;;;;;;5056181;28;20393;-79
2021/10/13 08:56:28;;;;;;;26.63;9.25;;;24.80;68.40;;;;;;5054426;28;20086;-79
2021/10/13 08:58:54;;;;;;;24.90;9.65;;;23.30;72.20;;;;;;5054377;28;20029;-79
2021/10/13 09:01:20;;;;;;;24.95;10.38;;;23.60;73.70;;;;;;5055643;28;20025;-79
2021/10/13 09:03:48;;;;;;;30.17;10.23;;;23.10;74.70;;;;;;5054256;28;20032;-79
2021/10/13 09:06:17;;;;;;;16.17;6.07;;;24.50;73.30;;;;;;5054200;28;20057;-79
2021/10/13 09:09:07;;;;;;;35.90;15.02;;;26.60;67.60;;;;;;5054212;28;20040;-79
2021/10/13 09:11:39;;;;;;;26.35;10.40;;;27.20;65.50;;;;;;5053824;28;20438;-80
2021/10/13 09:14:15;;;;;;;32.08;12.75;;;28.30;63.00;;;;;;5055354;28;20524;-80
2021/10/13 09:17:09;;;;;;;24.45;8.98;;;29.10;62.30;;;;;;5053756;28;20421;-80
2021/10/13 09:19:44;;;;;;;34.42;6.70;;;30.10;59.60;;;;;;5055746;28;20025;-79
2021/10/13 09:22:14;;;;;;;16.02;5.95;;;30.40;57.20;;;;;;5055259;28;20025;-80
2021/10/13 09:24:48;;;;;;;18.77;5.93;;;30.40;58.10;;;;;;5053712;28;20029;-80
2021/10/13 09:27:28;;;;;;;15.55;5.53;;;30.90;57.20;;;;;;5054905;28;20044;-80
2021/10/13 09:30:08;;;;;;;18.88;4.63;;;31.80;55.70;;;;;;5053013;28;20029;-80
2021/10/13 09:32:43;;;;;;;13.27;4.63;;;31.90;55.70;;;;;;5053216;28;20041;-80
2021/10/13 09:35:10;;;;;;;16.77;4.80;;;32.00;55.30;;;;;;5054078;28;20025;-80
2021/10/13 09:37:46;;;;;;;15.25;4.65;;;32.30;54.20;;;;;;5054725;28;20021;-80
2021/10/13 09:40:13;;;;;;;14.30;4.30;;;32.50;54.30;;;;;;5055359;28;20028;-80
2021/10/13 09:42:41;;;;;;;10.75;4.63;;;33.30;53.10;;;;;;5054794;28;20074;-80
2021/10/13 09:45:11;;;;;;;13.23;4.20;;;34.10;52.30;;;;;;5053518;28;20090;-80
2021/10/13 09:47:38;;;;;;;12.77;4.95;;;35.40;50.60;;;;;;5053181;28;20037;-80
2021/10/13 09:50:13;;;;;;;13.18;4.65;;;35.00;49.60;;;;;;5053410;28;20120;-81
2021/10/13 09:52:40;;;;;;;16.55;6.22;;;35.10;49.50;;;;;;5054833;28;20048;-80
2021/10/13 09:55:09;;;;;;;17.45;5.18;;;33.90;49.00;;;;;;5053373;28;20489;-81
2021/10/13 09:57:49;;;;;;;14.00;5.32;;;32.40;52.10;;;;;;5054589;28;20045;-81
2021/10/13 10:00:20;;;;;;;14.45;5.72;;;35.00;49.20;;;;;;5055098;28;20419;-81
2021/10/13 10:02:45;;;;;;;16.95;5.30;;;36.00;47.40;;;;;;5054618;28;20028;-81
2021/10/13 10:05:15;;;;;;;12.60;5.88;;;35.70;48.40;;;;;;5053159;28;20082;-81
2021/10/13 10:07:44;;;;;;;12.27;5.55;;;37.30;46.20;;;;;;5054380;28;20397;-80
2021/10/13 10:10:20;;;;;;;19.27;6.18;;;35.60;46.70;;;;;;5053007;28;20060;-81
2021/10/13 10:13:08;;;;;;;14.23;5.50;;;35.40;46.80;;;;;;5054345;28;20481;-81
2021/10/13 10:15:48;;;;;;;18.13;5.95;;;33.10;48.90;;;;;;5054544;28;20380;-80
2021/10/13 10:18:35;;;;;;;18.25;6.15;;;29.30;54.40;;;;;;5054556;28;20017;-80
2021/10/13 10:21:18;;;;;;;17.88;5.05;;;27.60;57.40;;;;;;5053986;28;20024;-80
2021/10/13 10:23:51;;;;;;;15.32;5.20;;;29.10;58.00;;;;;;5052754;28;20416;-80
2021/10/13 10:26:26;;;;;;;15.45;5.47;;;28.10;57.50;;;;;;5054062;28;20044;-79
2021/10/13 10:28:52;;;;;;;15.40;5.70;;;25.90;62.70;;;;;;5052676;28;20393;-79
2021/10/13 10:31:27;;;;;;;17.23;6.10;;;23.60;69.30;;;;;;5052319;28;20045;-79
2021/10/13 10:34:17;;;;;;;20.75;6.65;;;22.70;73.30;;;;;;5053855;28;20029;-79
2021/10/13 10:36:43;;;;;;;19.83;6.97;;;22.00;75.90;;;;;;5053959;28;20048;-79
2021/10/13 10:39:11;;;;;;;15.98;7.05;;;21.70;78.80;;;;;;5053941;28;20025;-78
2021/10/13 10:41:54;;;;;;;19.42;7.45;;;21.00;83.00;;;;;;5054265;28;20039;-79
2021/10/13 10:44:35;;;;;;;15.93;7.30;;;21.20;84.10;;;;;;5053851;28;20020;-79
2021/10/13 10:47:06;;;;;;;17.33;6.85;;;21.80;82.60;;;;;;5051769;28;20033;-79
2021/10/13 10:49:47;;;;;;;15.20;6.68;;;21.80;82.80;;;;;;5053617;28;20028;-79
2021/10/13 10:52:14;;;;;;;16.38;7.07;;;22.10;83.10;;;;;;5053903;28;20110;-80
2021/10/13 10:54:50;;;;;;;30.02;8.55;;;23.60;78.70;;;;;;5052270;28;20021;-79
2021/10/13 10:57:32;;;;;;;13.85;6.43;;;24.70;75.90;;;;;;5053613;28;20025;-79
2021/10/13 10:59:59;;;;;;;18.95;7.13;;;25.10;72.70;;;;;;5052091;28;20031;-79
2021/10/13 11:02:25;;;;;;;14.98;7.22;;;25.50;72.40;;;;;;5053446;28;20028;-79
2021/10/13 11:05:09;;;;;;;13.40;7.03;;;25.10;70.40;;;;;;5053336;28;20036;-79
2021/10/13 11:07:36;;;;;;;14.77;6.88;;;25.00;71.30;;;;;;5053328;28;20032;-80
2021/10/13 11:10:09;;;;;;;21.42;7.10;;;27.80;65.20;;;;;;5053202;28;20397;-80
2021/10/13 11:12:52;;;;;;;13.82;6.53;;;29.80;61.80;;;;;;5053292;28;20017;-81
2021/10/13 11:15:21;;;;;;;10.25;5.10;;;33.10;55.70;;;;;;5051712;28;20025;-81
2021/10/13 11:17:48;;;;;;;17.10;6.75;;;31.90;54.30;;;;;;5051919;28;20033;-80
2021/10/13 11:20:16;;;;;;;10.32;4.75;;;32.80;51.90;;;;;;5053421;28;20116;-79
2021/10/13 11:22:43;;;;;;;10.73;5.60;;;32.00;52.10;;;;;;5053172;28;20033;-80
2021/10/13 11:25:12;;;;;;;12.05;6.13;;;30.50;53.20;;;;;;5051807;28;20025;-79
2021/10/13 11:27:39;;;;;;;13.00;6.00;;;28.10;58.10;;;;;;5051861;28;20024;-79
2021/10/13 11:30:18;;;;;;;14.98;6.70;;;28.20;58.30;;;;;;5051738;28;20025;-80
2021/10/13 11:32:45;;;;;;;20.40;6.50;;;29.10;56.50;;;;;;5051426;28;20091;-79
2021/10/13 11:35:11;;;;;;;10.50;4.50;;;29.00;55.70;;;;;;5052892;28;20027;-80
2021/10/13 11:37:37;;;;;;;11.50;4.80;;;29.40;54.80;;;;;;5053047;28;20079;-80
2021/10/13 11:40:03;;;;;;;12.05;5.03;;;28.70;55.70;;;;;;5051687;28;20037;-79
2021/10/13 11:42:31;;;;;;;11.57;4.80;;;28.20;55.80;;;;;;5051619;28;20017;-79
2021/10/13 11:44:57;;;;;;;15.07;5.85;;;27.60;58.00;;;;;;5051662;28;20032;-80
2021/10/13 11:47:33;;;;;;;19.90;5.43;;;26.10;61.30;;;;;;5052909;28;20029;-80
2021/10/13 11:50:04;;;;;;;16.73;5.10;;;25.70;61.80;;;;;;5052852;28;20112;-79
2021/10/13 11:52:31;;;;;;;29.95;6.40;;;26.50;63.30;;;;;;5052883;28;20022;-80
2021/10/13 11:55:06;;;;;;;9.88;3.55;;;32.70;54.30;;;;;;5053015;28;20365;-81
2021/10/13 11:57:32;;;;;;;9.30;3.60;;;37.30;46.70;;;;;;5052925;28;20029;-81
2021/10/13 12:00:20;;;;;;;13.00;5.03;;;35.20;43.70;;;;;;5055566;28;20036;-80
2021/10/13 12:03:02;;;;;;;9.68;3.53;;;34.00;46.20;;;;;;5056747;28;20389;-80
2021/10/13 12:05:39;;;;;;;10.27;3.90;;;32.50;49.10;;;;;;5055419;28;20461;-80
2021/10/13 12:08:15;;;;;;;8.10;3.00;;;29.70;51.60;;;;;;5056749;28;20031;-80
2021/10/13 12:10:40;;;;;;;8.43;3.10;;;32.20;50.90;;;;;;5056994;28;20055;-80
2021/10/13 12:13:13;;;;;;;31.80;5.72;;;37.10;43.30;;;;;;5056763;28;20025;-80
2021/10/13 12:15:41;;;;;;;8.82;3.53;;;38.50;42.00;;;;;;5056637;28;20412;-81
2021/10/13 12:18:15;;;;;;;12.98;3.90;;;40.50;40.30;;;;;;5056479;28;20097;-81
2021/10/13 12:20:43;;;;;;;6.72;4.10;;;41.40;39.40;;;;;;5056665;28;20025;-81
2021/10/13 12:23:11;;;;;;;7.65;3.40;;;41.50;38.00;;;;;;5056663;28;20025;-81
2021/10/13 12:25:37;;;;;;;6.38;3.28;;;38.90;39.40;;;;;;5055032;28;20091;-81
2021/10/13 12:28:29;;;;;;;8.43;3.83;;;39.70;38.40;;;;;;5054971;28;20032;-81
2021/10/13 12:31:11;;;;;;;9.57;4.00;;;40.10;38.50;;;;;;5056163;28;20076;-81
2021/10/13 12:33:45;;;;;;;8.55;3.50;;;39.40;38.80;;;;;;5056137;28;20064;-81
2021/10/13 12:36:16;;;;;;;7.97;3.50;;;39.50;38.70;;;;;;5054604;28;20028;-81
2021/10/13 12:38:52;;;;;;;7.40;3.72;;;39.30;38.00;;;;;;5054686;28;20056;-81
2021/10/13 12:41:18;;;;;;;10.75;5.18;;;40.50;39.10;;;;;;5056193;28;20477;-81
2021/10/13 12:43:46;;;;;;;13.63;5.30;;;44.00;36.70;;;;;;5054722;28;20083;-79
2021/10/13 12:46:33;;;;;;;6.35;3.00;;;42.40;37.00;;;;;;5054597;28;20025;-78
2021/10/13 12:49:12;;;;;;;8.02;2.80;;;37.20;39.30;;;;;;5054397;28;20107;-78
2021/10/13 12:51:59;;;;;;;7.38;2.50;;;37.70;39.50;;;;;;5054323;28;20028;-78
2021/10/13 12:54:29;;;;;;;6.47;2.70;;;33.70;43.20;;;;;;5055817;28;20025;-80